Timmins, Canada
Current Conditions -  °F | °C
As of 7:00 PM on Saturday 25 Oct 2014 (Local Time) from CYTS Reporting Station
Light Rain Light Rain  
Wind Chill: 36°   Ceiling: 2900
Heat Index: 41°   Visibility: 12mi
Dew Point: 39°   Wind: 8mph
Humidity: 93%   Direction: 270°W
Pressure: 29.43"   Gusts: NA
Location:  48.48°N, 81.33°W
Report Text: CYTS 252300Z 27007KT 12SM -RA FEW015 BKN029 OVC100 05/04 A2943 RMK SC2SC3AC3 SLP976
Loading
Personal Weather Stations






























Interactive Weather Map
Tropical Storm Tracking
New forecast layout! Learn more

10-Day Weather Forecast

Advertisements
Track Severe Weather on mobile